0VG weather

Lee County Airport
Jonesville, Virginia, United States

Public forecast

Using degrees Fahrenheit for public forecast. Weather courtesy of forecast.io.

METAR (pilot weather report)

Retrieved 2019/07/18 19:35 UTC (0 seconds ago):

K0VG 181935Z AUTO 10SM CLR 31/21 A3004 RMK AO2

TAF (pilot weather forecast)

Closest forecast is Tri-Cities Regional TN/VA Airport, 40.5 nm (75.1 km) ESE. Retrieved 2019/07/18 18:28 UTC (55 minutes ago):

TAF KTRI 181726Z 1818/1918 25009KT P6SM VCTS FEW025CB BKN070 TEMPO 1818/1822 5SM -SHRA SCT025 BKN040 FM190100 00000KT P6SM SCT050 BKN250 FM190800 00000KT 4SM BR SCT010 OVC025 FM191300 28005KT P6SM SCT035 BKN050